Time;durP1;ratioP1;P1;durP2;ratioP2;P2;SDS_P1;SDS_P2;PMS_P1;PMS_P2;Temp;Humidity;BMP_temperature;BMP_pressure;BME280_temperature;BME280_humidity;BME280_pressure;Samples;Min_cycle;Max_cycle;Signal;HPM_P1;HPM_P2
2022/05/11 00:01:36;;;;;;;34.20;4.05;;;;;;;22.88;55.55;99322.91;7312771;19;129051;-36
2022/05/11 00:04:05;;;;;;;22.23;3.03;;;;;;;22.89;55.72;99315.88;7312842;19;130123;-37
2022/05/11 00:06:30;;;;;;;32.53;3.28;;;;;;;22.84;55.92;99311.06;7313410;19;129231;-38
2022/05/11 00:08:57;;;;;;;29.45;3.25;;;;;;;22.90;55.76;99317.50;7312906;19;154457;-40
2022/05/11 00:11:24;;;;;;;23.67;2.67;;;;;;;22.90;55.80;99317.50;7313207;19;129231;-38
2022/05/11 00:13:49;;;;;;;32.08;3.70;;;;;;;22.92;55.72;99310.31;7312806;19;129749;-40
2022/05/11 00:16:15;;;;;;;37.60;3.78;;;;;;;22.93;55.21;99310.16;7311387;19;130767;-40
2022/05/11 00:18:41;;;;;;;22.23;2.88;;;;;;;22.95;55.72;99304.75;7312493;19;130175;-37
2022/05/11 00:21:07;;;;;;;20.77;2.40;;;;;;;22.91;55.89;99312.09;7314552;19;129103;-41
2022/05/11 00:23:33;;;;;;;15.35;2.33;;;;;;;22.88;55.14;99307.19;7313546;19;129999;-37
2022/05/11 00:25:58;;;;;;;23.77;2.80;;;;;;;22.90;55.74;99307.84;7310291;19;130755;-40
2022/05/11 00:28:23;;;;;;;34.85;3.38;;;;;;;22.94;55.93;99313.63;7313173;19;130481;-40
2022/05/11 00:30:49;;;;;;;32.75;3.83;;;;;;;22.94;55.44;99313.63;7312220;19;154156;-38
2022/05/11 00:33:15;;;;;;;25.15;2.72;;;;;;;22.90;55.52;99309.63;7311316;19;145867;-41
2022/05/11 00:35:42;;;;;;;22.60;2.75;;;;;;;22.92;55.16;99310.31;7311166;19;129833;-40
2022/05/11 00:38:09;;;;;;;35.55;3.50;;;;;;;22.93;55.41;99312.78;7313513;19;128811;-40
2022/05/11 00:40:50;;;;;;;19.15;2.42;;;;;;;22.92;56.51;99305.88;7313151;19;129023;-40
2022/05/11 00:43:26;;;;;;;27.33;3.08;;;;;;;22.94;56.26;99303.13;7310409;19;131699;-40
2022/05/11 00:45:51;;;;;;;36.55;3.80;;;;;;;22.82;55.85;99288.63;7309857;19;130471;-38
2022/05/11 00:51:13;;;;;;;47.13;4.53;;;;;;;22.93;55.89;99294.44;7313939;19;129174;-41
2022/05/11 00:53:43;;;;;;;39.72;4.38;;;;;;;22.90;55.64;99296.53;7311834;19;130170;-41
2022/05/11 00:56:09;;;;;;;26.95;3.10;;;;;;;22.90;55.28;99292.13;7310985;19;129687;-39
2022/05/11 00:58:44;;;;;;;20.77;2.90;;;;;;;22.90;56.16;99288.66;7310944;19;129826;-40
2022/05/11 01:01:09;;;;;;;32.67;3.55;;;;;;;22.91;54.94;99298.16;7306662;19;129034;-40
2022/05/11 01:03:44;;;;;;;41.10;4.18;;;;;;;22.93;55.75;99280.50;7310489;19;129015;-38
2022/05/11 01:06:11;;;;;;;24.40;2.85;;;;;;;22.91;55.24;99288.50;7310039;19;129844;-39
2022/05/11 01:08:38;;;;;;;30.77;3.13;;;;;;;22.92;55.82;99284.09;7313866;19;129250;-38
2022/05/11 01:11:05;;;;;;;30.35;3.30;;;;;;;22.91;55.58;99283.28;7312231;19;129717;-40
2022/05/11 01:13:32;;;;;;;26.30;3.22;;;;;;;22.80;55.89;99270.44;7309984;19;129351;-38
2022/05/11 01:15:58;;;;;;;;;;;;;;;22.93;56.34;99270.00;7308407;19;130899;-41
2022/05/11 01:18:24;;;;;;;19.65;2.45;;;;;;;22.93;55.71;99285.72;7312106;19;128924;-40
2022/05/11 01:20:51;;;;;;;40.83;4.20;;;;;;;22.92;56.38;99278.84;7311595;19;129272;-39
2022/05/11 01:23:52;;;;;;;27.60;3.00;;;;;;;22.92;56.52;99279.66;7311943;19;130368;-40
2022/05/11 01:26:18;;;;;;;13.40;1.90;;;;;;;22.91;55.30;99275.41;7310866;19;130047;-38
2022/05/11 01:28:47;;;;;;;20.90;2.38;;;;;;;22.95;55.84;99278.53;7312785;19;129328;-40
2022/05/11 01:31:13;;;;;;;33.97;3.78;;;;;;;22.92;55.49;99274.41;7310685;19;129119;-41
2022/05/11 01:33:42;;;;;;;28.42;3.10;;;;;;;22.92;55.82;99271.78;7310075;19;129524;-41
2022/05/11 01:36:30;;;;;;;38.90;4.10;;;;;;;22.92;56.39;99265.75;7308887;19;130016;-38
2022/05/11 01:39:02;;;;;;;12.95;2.00;;;;;;;22.93;55.84;99264.75;7310014;19;129384;-41
2022/05/11 01:41:39;;;;;;;34.40;3.70;;;;;;;22.94;56.04;99276.91;7308724;19;129142;-37
2022/05/11 01:44:07;;;;;;;;;;;;;;;23.03;56.19;99270.72;7311833;19;130704;-40
2022/05/11 01:46:33;;;;;;;28.67;3.43;;;;;;;22.97;55.35;99271.34;7308618;19;131276;-39
2022/05/11 01:48:59;;;;;;;22.50;2.33;;;;;;;22.93;56.02;99268.22;7311288;19;129288;-40
2022/05/11 01:51:24;;;;;;;19.55;2.17;;;;;;;22.93;56.28;99270.00;7308355;19;155339;-38
2022/05/11 01:53:50;;;;;;;23.08;2.50;;;;;;;22.91;55.94;99267.53;7309753;19;130717;-39
2022/05/11 01:56:21;;;;;;;30.93;3.67;;;;;;;22.93;55.88;99264.75;7309237;19;129763;-36
2022/05/11 01:58:47;;;;;;;36.47;3.83;;;;;;;22.93;56.03;99264.75;7309801;19;129888;-39
2022/05/11 02:01:19;;;;;;;27.80;2.73;;;;;;;22.94;56.00;99263.81;7311776;19;129484;-38
2022/05/11 02:03:45;;;;;;;24.27;2.85;;;;;;;22.92;55.65;99263.13;7309940;19;130162;-40
2022/05/11 02:08:54;;;;;;;29.10;3.30;;;;;;;22.91;55.73;99257.06;7310319;19;129034;-40
2022/05/11 02:11:19;;;;;;;26.35;3.10;;;;;;;22.91;55.31;99257.06;7308167;19;154500;-40
2022/05/11 02:13:45;;;;;;;30.23;3.43;;;;;;;22.90;55.40;99257.22;7308120;19;158805;-38
2022/05/11 02:16:11;;;;;;;30.70;3.22;;;;;;;22.91;55.62;99249.19;7308329;19;131113;-41
2022/05/11 02:18:36;;;;;;;33.53;3.17;;;;;;;22.94;55.52;99256.72;7309278;19;129856;-36
2022/05/11 02:21:02;;;;;;;27.40;2.95;;;;;;;22.94;55.66;99255.94;7309680;19;130049;-41
2022/05/11 02:23:27;;;;;;;32.30;3.17;;;;;;;22.91;55.92;99251.81;7310732;19;129336;-39
2022/05/11 02:25:53;;;;;;;27.92;3.03;;;;;;;22.91;55.78;99256.22;7306243;19;159638;-38
2022/05/11 02:28:21;;;;;;;18.45;2.10;;;;;;;22.92;56.20;99255.25;7310199;19;129133;-41
2022/05/11 02:30:48;;;;;;;25.95;2.92;;;;;;;22.94;56.11;99253.31;7311704;19;129204;-41
2022/05/11 02:33:14;;;;;;;26.90;2.65;;;;;;;22.94;55.20;99254.13;7310417;19;129770;-39
2022/05/11 02:35:41;;;;;;;26.52;3.30;;;;;;;22.93;55.47;99252.47;7308397;19;129775;-39
2022/05/11 02:38:10;;;;;;;26.08;2.90;;;;;;;22.92;55.83;99261.31;7310092;19;131182;-41
2022/05/11 02:40:37;;;;;;;16.33;1.85;;;;;;;22.91;56.06;99250.97;7311162;19;129193;-39
2022/05/11 02:43:03;;;;;;;38.65;4.05;;;;;;;22.93;55.64;99254.28;7308715;19;129151;-41
2022/05/11 02:45:34;;;;;;;41.10;4.50;;;;;;;22.88;56.40;99240.81;7306732;19;130965;-38
2022/05/11 02:48:01;;;;;;;17.65;2.38;;;;;;;22.94;55.46;99256.72;7308547;19;129236;-40
2022/05/11 02:50:34;;;;;;;23.02;2.72;;;;;;;22.86;55.73;99243.59;7309318;19;129224;-40
2022/05/11 02:53:02;;;;;;;30.77;3.38;;;;;;;22.95;55.62;99263.63;7309976;19;129539;-40
2022/05/11 02:55:28;;;;;;;51.55;5.32;;;;;;;22.95;55.93;99262.81;7307843;19;130380;-39
2022/05/11 02:57:53;;;;;;;21.60;2.25;;;;;;;22.95;55.70;99261.03;7309161;19;128998;-39
2022/05/11 03:00:20;;;;;;;18.88;2.40;;;;;;;22.86;55.19;99237.53;7305940;19;155213;-40
2022/05/11 03:02:45;;;;;;;40.90;4.47;;;;;;;22.98;55.59;99252.00;7309043;19;130084;-40
2022/05/11 03:05:12;;;;;;;45.65;4.45;;;;;;;22.96;55.86;99249.53;7307609;19;132638;-40
2022/05/11 03:07:38;;;;;;;16.77;2.20;;;;;;;22.93;55.49;99247.25;7309354;19;129636;-39
2022/05/11 03:10:04;;;;;;;43.50;4.20;;;;;;;22.95;55.97;99247.09;7308842;19;129339;-39
2022/05/11 03:12:31;;;;;;;24.17;2.78;;;;;;;22.94;55.47;99255.94;7308386;19;129166;-38
2022/05/11 03:14:57;;;;;;;30.30;3.10;;;;;;;22.94;55.92;99248.06;7306469;19;129530;-39
2022/05/11 03:17:22;;;;;;;18.10;2.15;;;;;;;22.96;56.21;99252.16;7306625;19;128896;-37
2022/05/11 03:19:48;;;;;;;26.30;2.80;;;;;;;22.87;55.97;99229.50;7308335;19;129120;-40
2022/05/11 03:22:14;;;;;;;38.77;3.77;;;;;;;22.98;55.33;99249.38;7308246;19;129845;-41
2022/05/11 03:24:39;;;;;;;38.72;3.83;;;;;;;22.95;55.66;99247.09;7306963;19;158336;-39
2022/05/11 03:27:05;;;;;;;19.95;2.33;;;;;;;22.97;56.14;99250.38;7314320;19;129809;-40
2022/05/11 03:29:31;;;;;;;7.25;1.52;;;;;;;22.94;55.54;99245.44;7316077;19;129775;-40
2022/05/11 03:34:41;;;;;;;27.48;3.05;;;;;;;22.90;56.04;99239.69;7314278;19;129094;-40
2022/05/11 03:37:10;;;;;;;21.08;2.38;;;;;;;22.94;56.36;99248.88;7316588;19;129227;-41
2022/05/11 03:39:35;;;;;;;31.65;3.20;;;;;;;22.94;55.81;99242.84;7313977;19;129446;-39
2022/05/11 03:42:01;;;;;;;27.83;2.92;;;;;;;22.94;55.71;99242.84;7316162;19;130052;-38
2022/05/11 03:44:28;;;;;;;27.25;3.08;;;;;;;22.93;55.72;99246.41;7313483;19;129808;-39
2022/05/11 03:46:53;;;;;;;43.33;4.20;;;;;;;22.94;56.04;99246.25;7314087;19;129262;-40
2022/05/11 03:49:18;;;;;;;30.08;3.25;;;;;;;22.95;55.61;99252.31;7315050;19;129383;-39
2022/05/11 03:51:44;;;;;;;24.92;2.88;;;;;;;22.97;55.44;99245.13;7311504;19;159214;-40
2022/05/11 03:54:10;;;;;;;16.08;2.05;;;;;;;22.94;55.59;99234.97;7310787;19;130320;-38
2022/05/11 03:56:35;;;;;;;23.95;2.65;;;;;;;22.96;55.61;99243.47;7313716;19;128878;-41
2022/05/11 03:59:00;;;;;;;38.95;3.92;;;;;;;22.91;55.00;99235.25;7312042;19;154108;-40
2022/05/11 04:01:25;;;;;;;57.28;5.28;;;;;;;22.88;55.82;99240.81;7310280;19;158186;-41
2022/05/11 04:03:51;;;;;;;21.88;2.58;;;;;;;22.94;55.10;99255.94;7312413;19;158569;-42
2022/05/11 04:06:16;;;;;;;22.30;2.38;;;;;;;22.94;55.79;99248.06;7312929;19;128930;-38
2022/05/11 04:08:42;;;;;;;28.50;2.97;;;;;;;22.95;55.82;99247.91;7312919;19;129671;-40
2022/05/11 04:11:07;;;;;;;31.02;3.05;;;;;;;22.96;55.68;99248.72;7313623;19;130779;-39
2022/05/11 04:13:33;;;;;;;49.60;4.75;;;;;;;22.97;55.66;99245.13;7311956;19;130658;-40
2022/05/11 04:15:59;;;;;;;20.53;2.40;;;;;;;22.94;54.83;99253.31;7308912;19;129123;-39
2022/05/11 04:18:27;;;;;;;32.17;3.38;;;;;;;22.98;56.29;99246.75;7311690;19;129830;-40
2022/05/11 04:20:52;;;;;;;29.50;3.13;;;;;;;22.96;56.00;99248.72;7311028;19;158266;-37
2022/05/11 04:23:17;;;;;;;28.70;2.90;;;;;;;22.94;55.89;99248.06;7312959;19;158658;-40
2022/05/11 04:25:43;;;;;;;37.78;3.70;;;;;;;22.92;55.89;99248.19;7306744;19;154991;-38
2022/05/11 04:28:11;;;;;;;24.05;2.80;;;;;;;22.93;56.11;99255.09;7313998;19;129143;-40
2022/05/11 04:30:36;;;;;;;35.05;3.92;;;;;;;22.94;56.20;99255.94;7310928;19;129190;-39
2022/05/11 04:33:01;;;;;;;18.13;2.13;;;;;;;22.94;55.38;99256.72;7312280;19;129885;-38
2022/05/11 04:35:30;;;;;;;38.22;4.45;;;;;;;22.95;56.51;99253.16;7308579;19;155206;-41
2022/05/11 04:37:59;;;;;;;31.48;3.13;;;;;;;22.97;56.13;99260.88;7312196;19;129381;-38
2022/05/11 04:40:25;;;;;;;19.20;2.05;;;;;;;22.93;55.72;99260.34;7311432;19;130219;-41
2022/05/11 04:42:51;;;;;;;36.13;3.70;;;;;;;22.87;55.96;99249.66;7311458;19;130438;-41
2022/05/11 04:45:16;;;;;;;30.63;3.33;;;;;;;22.93;55.17;99265.59;7310032;19;129287;-39
2022/05/11 04:47:42;;;;;;;25.25;2.72;;;;;;;22.96;55.71;99264.44;7311374;19;129183;-39
2022/05/11 04:50:09;;;;;;;32.90;3.40;;;;;;;22.98;55.58;99260.69;7309574;19;130927;-37
2022/05/11 04:52:35;;;;;;;45.25;4.63;;;;;;;22.97;56.00;99266.09;7310808;19;131124;-40
2022/05/11 04:55:00;;;;;;;25.05;2.75;;;;;;;22.96;55.70;99269.69;7309548;19;129435;-40
2022/05/11 04:57:25;;;;;;;20.17;2.40;;;;;;;22.97;55.49;99263.47;7311847;19;154808;-37
2022/05/11 04:59:51;;;;;;;50.63;4.97;;;;;;;22.96;55.52;99269.69;7307240;19;158292;-39
2022/05/11 05:02:19;;;;;;;18.48;1.88;;;;;;;22.86;55.59;99245.38;7311129;19;157971;-40
2022/05/11 05:04:45;;;;;;;46.55;4.50;;;;;;;22.94;55.58;99271.66;7311358;19;129704;-39
2022/05/11 05:07:11;;;;;;;23.43;2.50;;;;;;;22.95;55.60;99268.06;7309423;19;129511;-41
2022/05/11 05:09:36;;;;;;;27.97;3.23;;;;;;;22.95;55.37;99266.25;7310528;19;142516;-35
2022/05/11 05:12:02;;;;;;;25.40;2.83;;;;;;;22.98;55.91;99272.97;7309941;19;132248;-41
2022/05/11 05:14:27;;;;;;;50.50;4.97;;;;;;;22.92;55.83;99266.56;7308683;19;130539;-38
2022/05/11 05:16:58;;;;;;;50.80;5.17;;;;;;;22.95;55.96;99273.28;7309290;19;154443;-39
2022/05/11 05:19:24;;;;;;;22.15;2.25;;;;;;;22.94;55.91;99271.66;7312108;19;129395;-40
2022/05/11 05:21:49;;;;;;;36.53;3.75;;;;;;;22.94;55.56;99269.03;7310643;19;158448;-40
2022/05/11 05:24:14;;;;;;;18.57;3.03;;;;;;;22.99;56.09;99269.41;7307543;19;154650;-37
2022/05/11 05:26:39;;;;;;;27.77;3.25;;;;;;;22.87;55.34;99254.91;7309637;19;153729;-40
2022/05/11 05:31:50;;;;;;;29.55;3.13;;;;;;;22.98;55.92;99270.34;7310069;19;129153;-39
2022/05/11 05:34:16;;;;;;;16.53;2.03;;;;;;;22.93;55.94;99277.88;7309044;19;130983;-40
2022/05/11 05:36:41;;;;;;;27.65;3.15;;;;;;;22.96;56.02;99280.16;7312679;19;128851;-39
2022/05/11 05:39:06;;;;;;;29.65;3.25;;;;;;;22.95;56.15;99274.13;7309914;19;158424;-40
2022/05/11 05:41:32;;;;;;;24.35;2.80;;;;;;;22.94;55.75;99272.47;7311150;19;130073;-41
2022/05/11 05:43:58;;;;;;;28.70;3.13;;;;;;;22.95;55.65;99281.16;7310622;19;129623;-39
2022/05/11 05:46:24;;;;;;;30.83;3.38;;;;;;;22.94;55.64;99282.16;7311642;19;129177;-40
2022/05/11 05:48:49;;;;;;;35.63;3.40;;;;;;;22.95;55.40;99278.53;7310459;19;130944;-39
2022/05/11 05:51:17;;;;;;;21.35;2.15;;;;;;;22.96;56.00;99275.75;7311768;19;128961;-41
2022/05/11 05:53:42;;;;;;;36.17;3.63;;;;;;;22.93;55.34;99264.75;7310368;19;129336;-40
2022/05/11 05:56:10;;;;;;;36.53;3.58;;;;;;;22.87;56.08;99260.16;7311471;19;129305;-39
2022/05/11 05:58:35;;;;;;;19.00;2.38;;;;;;;22.95;55.54;99270.69;7310274;19;129827;-40
2022/05/11 06:01:01;;;;;;;28.30;3.17;;;;;;;22.96;55.33;99278.38;7308798;19;129724;-41
2022/05/11 06:03:29;;;;;;;18.63;2.20;;;;;;;22.94;56.19;99275.09;7311550;19;129202;-41
2022/05/11 06:05:55;;;;;;;30.90;3.17;;;;;;;22.94;55.92;99276.91;7309427;19;128974;-41
2022/05/11 06:08:21;;;;;;;21.05;2.58;;;;;;;22.94;56.05;99277.72;7309579;19;130723;-39
2022/05/11 06:10:48;;;;;;;23.73;2.50;;;;;;;22.97;56.02;99268.72;7311174;19;130552;-41
2022/05/11 06:13:16;;;;;;;16.95;1.98;;;;;;;22.98;55.41;99265.13;7311474;19;129411;-40
2022/05/11 06:15:41;;;;;;;24.52;2.85;;;;;;;22.96;56.24;99262.66;7308477;19;130517;-40
2022/05/11 06:18:08;;;;;;;33.63;3.75;;;;;;;22.94;55.86;99263.81;7310281;19;130336;-38
2022/05/11 06:20:35;;;;;;;18.98;2.30;;;;;;;22.95;55.04;99262.81;7306799;19;130006;-41
2022/05/11 06:23:01;;;;;;;39.72;4.00;;;;;;;22.93;55.25;99267.38;7310123;19;129235;-39
2022/05/11 06:25:27;;;;;;;;;;;;;;;23.07;55.69;99266.81;7309826;19;129168;-41
2022/05/11 06:27:52;;;;;;;23.05;2.45;;;;;;;22.98;55.92;99262.50;7310583;19;130256;-41
2022/05/11 06:30:17;;;;;;;17.17;2.15;;;;;;;22.96;55.52;99265.28;7308574;19;160602;-40
2022/05/11 06:32:43;;;;;;;31.10;3.20;;;;;;;22.95;55.87;99260.19;7306792;19;141578;-38
2022/05/11 06:35:09;;;;;;;31.17;3.63;;;;;;;22.91;55.78;99264.91;7306392;19;128970;-41
2022/05/11 06:37:38;;;;;;;73.53;7.95;;;;;;;22.95;56.66;99268.06;7306723;19;130248;-40
2022/05/11 06:40:04;;;;;;;23.70;2.80;;;;;;;22.94;55.49;99272.47;7306280;19;129869;-41
2022/05/11 06:42:30;;;;;;;59.10;5.88;;;;;;;22.95;55.37;99273.28;7308516;19;129217;-38
2022/05/11 06:44:56;;;;;;;16.63;2.33;;;;;;;22.94;56.07;99277.72;7307995;19;129191;-40
2022/05/11 06:47:21;;;;;;;15.52;2.05;;;;;;;22.86;56.25;99261.94;7308634;19;158059;-38
2022/05/11 06:49:47;;;;;;;23.23;2.70;;;;;;;22.96;56.39;99274.94;7309389;19;130403;-41
2022/05/11 06:52:12;;;;;;;51.88;5.28;;;;;;;22.88;55.81;99272.28;7309226;19;129323;-40
2022/05/11 07:00:06;;;;;;;34.03;3.67;;;;;;;22.95;55.99;99268.06;7305288;19;130845;-36
2022/05/11 07:02:33;;;;;;;22.85;2.78;;;;;;;22.95;55.85;99289.84;7315758;19;129509;-40
2022/05/11 07:04:58;;;;;;;;;;;;;;;22.93;56.06;99264.75;7311306;19;129229;-40
2022/05/11 07:07:23;;;;;;;27.90;2.83;;;;;;;22.94;56.29;99271.66;7314150;19;158546;-39
2022/05/11 07:09:48;;;;;;;24.80;2.78;;;;;;;22.94;56.07;99277.72;7315470;19;158451;-40
2022/05/11 07:12:32;;;;;;;25.27;3.35;;;;;;;22.94;56.10;99276.91;7313320;19;154703;-38
2022/05/11 07:14:59;;;;;;;24.48;2.75;;;;;;;22.92;55.50;99281.47;7315675;19;129962;-37
2022/05/11 07:17:34;;;;;;;37.17;4.00;;;;;;;22.94;56.47;99274.28;7314455;19;130296;-38
2022/05/11 07:20:11;;;;;;;20.77;2.40;;;;;;;22.88;56.39;99252.13;7315365;19;129233;-39
2022/05/11 07:22:38;;;;;;;;;;;;;;;23.05;55.77;99271.38;7316303;19;129480;-38
2022/05/11 07:25:04;;;;;;;34.35;3.33;;;;;;;22.97;55.94;99271.34;7315418;19;129058;-37
2022/05/11 07:27:30;;;;;;;55.33;5.25;;;;;;;22.98;55.98;99272.97;7314337;19;131367;-38
2022/05/11 07:29:55;;;;;;;27.65;3.08;;;;;;;22.94;55.78;99266.44;7314990;19;129605;-38
2022/05/11 07:32:22;;;;;;;27.07;3.17;;;;;;;22.98;56.49;99270.34;7313759;19;155425;-39
2022/05/11 07:34:48;;;;;;;31.38;3.13;;;;;;;22.94;55.97;99261.97;7310354;19;129601;-38
2022/05/11 07:37:14;;;;;;;19.65;2.13;;;;;;;22.95;56.35;99263.63;7315480;19;129327;-40
2022/05/11 07:39:39;;;;;;;20.40;2.13;;;;;;;22.94;55.28;99259.34;7313354;19;129404;-41
2022/05/11 07:42:05;;;;;;;28.90;3.17;;;;;;;22.89;55.50;99260.81;7315262;19;129670;-39
2022/05/11 07:44:31;;;;;;;21.40;2.67;;;;;;;22.93;55.85;99254.28;7313321;19;128954;-40
2022/05/11 07:46:56;;;;;;;9.38;1.38;;;;;;;22.96;55.84;99246.09;7313475;19;135341;-37
2022/05/11 07:49:21;;;;;;;24.60;2.35;;;;;;;22.95;55.59;99247.91;7313575;19;157197;-39
2022/05/11 07:51:47;;;;;;;47.67;4.38;;;;;;;22.93;55.78;99244.63;7310987;19;129291;-37
2022/05/11 07:54:13;;;;;;;21.88;2.35;;;;;;;22.92;55.88;99242.16;7315066;19;140221;-37
2022/05/11 08:02:08;;;;;;;29.85;3.53;;;;;;;22.91;55.12;99233.47;7311227;19;129479;-40
2022/05/11 08:04:34;;;;;;;37.50;3.60;;;;;;;22.93;55.83;99241.16;7309557;19;128966;-40
2022/05/11 08:07:00;;;;;;;46.93;4.40;;;;;;;22.94;55.33;99237.59;7313033;19;129561;-38
2022/05/11 08:09:26;;;;;;;28.40;2.90;;;;;;;22.90;56.34;99223.97;7312432;19;130344;-40
2022/05/11 08:11:52;;;;;;;29.92;3.00;;;;;;;22.95;55.95;99231.34;7310619;19;154791;-38
2022/05/11 08:14:18;;;;;;;31.98;3.00;;;;;;;22.93;55.38;99233.31;7312649;19;129444;-38
2022/05/11 08:16:44;;;;;;;27.50;2.67;;;;;;;22.85;55.28;99221.00;7313395;19;129219;-38
2022/05/11 08:19:10;;;;;;;25.37;2.80;;;;;;;22.26;50.68;99233.19;7314454;19;129702;-38
2022/05/11 08:21:36;;;;;;;31.70;3.25;;;;;;;22.11;50.92;99230.31;7314555;19;129252;-38
2022/05/11 08:24:01;;;;;;;35.53;3.40;;;;;;;22.07;51.09;99228.13;7313555;19;129784;-38
2022/05/11 08:26:27;;;;;;;19.27;2.40;;;;;;;22.04;49.61;99238.91;7313900;19;129098;-38
2022/05/11 08:28:53;;;;;;;22.87;2.53;;;;;;;22.08;49.89;99229.78;7314872;19;129561;-43
2022/05/11 08:34:02;;;;;;;21.38;2.45;;;;;;;22.13;50.09;99222.31;7314158;19;129841;-37
2022/05/11 08:36:28;;;;;;;19.95;2.83;;;;;;;22.14;48.80;99213.47;7310422;19;158471;-38
2022/05/11 08:38:56;;;;;;;23.27;2.80;;;;;;;22.17;49.39;99221.00;7313890;19;130765;-38
2022/05/11 08:41:49;;;;;;;34.50;3.28;;;;;;;22.19;48.39;99221.69;7311863;19;129353;-36
2022/05/11 08:44:26;;;;;;;17.65;2.28;;;;;;;22.25;48.77;99221.06;7312430;19;129483;-40
2022/05/11 08:47:10;;;;;;;16.85;2.40;;;;;;;22.24;48.41;99219.44;7313357;19;130499;-39
2022/05/11 08:49:59;;;;;;;23.70;2.65;;;;;;;22.27;48.50;99209.47;7314761;19;129241;-38
2022/05/11 08:52:29;;;;;;;16.67;2.17;;;;;;;22.20;48.25;99210.22;7314215;19;129035;-41
2022/05/11 08:55:10;;;;;;;61.92;6.32;;;;;;;22.31;47.77;99207.38;7309346;19;129031;-38
2022/05/11 08:57:36;;;;;;;21.65;2.63;;;;;;;22.34;48.03;99204.44;7312083;19;129607;-38
2022/05/11 09:00:28;;;;;;;19.20;2.55;;;;;;;22.31;47.72;99212.63;7311676;19;129557;-39
2022/05/11 09:02:58;;;;;;;28.10;3.22;;;;;;;22.37;47.78;99214.59;7310353;19;129235;-37
2022/05/11 09:05:27;;;;;;;39.30;4.57;;;;;;;22.31;48.37;99216.06;7308645;19;130620;-39
2022/05/11 09:07:54;;;;;;;28.88;3.25;;;;;;;22.33;47.46;99208.06;7311041;19;130807;-38
2022/05/11 09:10:26;;;;;;;16.95;2.10;;;;;;;22.38;47.53;99211.84;7313249;19;129906;-39
2022/05/11 09:12:57;;;;;;;22.80;2.80;;;;;;;22.36;47.57;99207.75;7312936;19;131076;-39
2022/05/11 09:15:22;;;;;;;49.60;4.93;;;;;;;22.39;47.82;99208.25;7310948;19;129248;-37
2022/05/11 09:17:48;;;;;;;25.67;3.28;;;;;;;22.38;48.43;99190.88;7310464;19;129666;-37
2022/05/11 09:20:17;;;;;;;24.42;2.75;;;;;;;22.43;47.77;99203.53;7310339;19;158939;-37
2022/05/11 09:22:59;;;;;;;23.65;2.70;;;;;;;22.30;47.35;99187.38;7310024;19;129830;-38
2022/05/11 09:25:28;;;;;;;33.58;3.88;;;;;;;22.40;47.29;99201.19;7311116;19;129083;-40
2022/05/11 09:28:13;;;;;;;21.17;2.60;;;;;;;22.41;47.33;99211.53;7313055;19;130468;-39
2022/05/11 09:30:40;;;;;;;28.80;3.45;;;;;;;22.49;47.27;99208.16;7312969;19;129397;-38
2022/05/11 09:33:14;;;;;;;18.25;2.38;;;;;;;22.52;47.61;99213.06;7314126;19;128849;-37
2022/05/11 09:35:39;;;;;;;18.77;2.53;;;;;;;22.49;47.44;99213.38;7310518;19;129075;-37
2022/05/11 09:38:10;;;;;;;23.40;2.72;;;;;;;22.53;47.23;99199.00;7313015;19;130892;-37
2022/05/11 09:41:17;;;;;;;32.55;3.47;;;;;;;22.47;46.88;99199.63;7310604;19;129790;-37
2022/05/11 09:43:50;;;;;;;31.20;3.28;;;;;;;22.48;46.45;99191.59;7312359;19;131321;-37
2022/05/11 09:46:25;;;;;;;18.48;2.30;;;;;;;22.46;47.01;99205.84;7312690;19;131175;-37
2022/05/11 09:49:02;;;;;;;24.83;2.80;;;;;;;22.41;47.06;99182.69;7313182;19;129236;-37
2022/05/11 09:51:43;;;;;;;21.60;2.65;;;;;;;22.45;46.97;99199.78;7312125;19;130405;-37
2022/05/11 09:54:24;;;;;;;25.30;2.80;;;;;;;22.45;46.84;99186.66;7311335;19;129357;-37
2022/05/11 09:56:53;;;;;;;20.50;2.58;;;;;;;22.51;46.66;99195.72;7311496;19;128884;-37
2022/05/11 09:59:20;;;;;;;18.73;2.15;;;;;;;22.56;46.29;99203.97;7311987;19;129690;-37
2022/05/11 10:02:01;;;;;;;37.13;4.15;;;;;;;22.54;46.33;99195.44;7309736;19;158667;-38
2022/05/11 10:04:52;;;;;;;21.75;2.63;;;;;;;22.53;46.39;99181.50;7311172;19;128961;-39
2022/05/11 10:07:19;;;;;;;39.30;3.40;;;;;;;22.54;46.23;99177.09;7310343;19;129309;-39
2022/05/11 10:09:55;;;;;;;;;;;;;;;22.57;46.47;99180.22;7312529;19;130102;-37
2022/05/11 10:12:26;;;;;;;25.52;2.78;;;;;;;22.59;46.88;99180.88;7310081;19;133284;-37
2022/05/11 10:23:30;;;;;;;21.67;2.60;;;;;;;22.58;46.19;99165.31;7311485;19;129172;-37
2022/05/11 10:26:05;;;;;;;27.17;3.38;;;;;;;22.60;45.88;99152.88;7307271;19;133533;-37
2022/05/11 10:28:51;;;;;;;24.92;2.63;;;;;;;22.59;46.42;99154.66;7311401;19;129023;-40
2022/05/11 10:31:33;;;;;;;23.20;2.42;;;;;;;22.62;45.87;99153.56;7310641;19;130153;-40
2022/05/11 10:34:20;;;;;;;39.30;4.55;;;;;;;22.59;45.77;99156.50;7311104;19;129222;-39
2022/05/11 10:36:59;;;;;;;19.98;2.58;;;;;;;22.59;46.36;99144.19;7316808;19;129406;-41
2022/05/11 10:39:52;;;;;;;35.33;3.42;;;;;;;22.60;46.10;99152.88;7318016;19;128964;-37
2022/05/11 10:42:33;;;;;;;16.90;2.10;;;;;;;22.60;46.09;99145.03;7316850;19;129482;-36
2022/05/11 10:45:02;;;;;;;33.72;3.58;;;;;;;22.60;46.28;99152.88;7314889;19;129349;-37
2022/05/11 10:48:05;;;;;;;27.05;2.90;;;;;;;22.65;46.09;99150.63;7316298;19;131138;-39
2022/05/11 10:50:50;;;;;;;13.07;1.95;;;;;;;22.65;45.54;99137.50;7317144;19;129420;-41
2022/05/11 10:53:21;;;;;;;20.40;2.72;;;;;;;22.62;46.44;99127.34;7315844;19;131426;-41
2022/05/11 10:55:56;;;;;;;33.00;3.60;;;;;;;22.62;46.34;99130.81;7313240;19;129827;-40
2022/05/11 10:58:42;;;;;;;21.90;2.75;;;;;;;22.66;46.17;99136.56;7315374;19;129230;-38
2022/05/11 11:01:13;;;;;;;35.00;3.53;;;;;;;22.72;46.08;99121.00;7314310;19;129468;-38
2022/05/11 11:03:54;;;;;;;23.05;2.53;;;;;;;22.62;46.01;99116.88;7315397;19;129024;-38
2022/05/11 11:09:40;;;;;;;31.85;3.47;;;;;;;22.61;45.88;99115.25;7318577;19;128804;-38
2022/05/11 11:12:49;;;;;;;5.35;1.27;;;;;;;22.65;46.22;99106.06;7314741;19;129163;-40
2022/05/11 11:15:17;;;;;;;;;;;;;;;22.65;46.04;99112.13;7314411;19;129652;-38
2022/05/11 11:17:44;;;;;;;33.10;3.30;;;;;;;22.65;45.97;99119.16;7315813;19;130120;-38
2022/05/11 11:20:11;;;;;;;22.17;2.70;;;;;;;22.70;46.13;99115.09;7316604;19;129217;-40
2022/05/11 11:23:04;;;;;;;23.02;2.72;;;;;;;22.60;45.76;99090.00;7315257;19;129926;-38
2022/05/11 11:25:52;;;;;;;40.08;4.60;;;;;;;22.72;45.84;99109.69;7312200;19;130153;-38
2022/05/11 11:28:20;;;;;;;34.90;3.47;;;;;;;22.71;45.64;99097.59;7315631;19;130040;-38
2022/05/11 11:30:58;;;;;;;14.10;2.08;;;;;;;22.73;46.18;99096.44;7315578;19;128931;-39
2022/05/11 11:33:34;;;;;;;32.42;3.50;;;;;;;22.77;46.42;99099.56;7313071;19;153961;-41
2022/05/11 11:36:03;;;;;;;20.87;2.33;;;;;;;22.72;45.58;99100.06;7312367;19;129618;-38
2022/05/11 11:38:38;;;;;;;28.45;3.05;;;;;;;22.71;45.37;99089.72;7315983;19;136127;-37
2022/05/11 11:41:23;;;;;;;29.33;2.95;;;;;;;22.70;45.09;99095.94;7312926;19;129162;-37
2022/05/11 11:43:49;;;;;;;53.92;5.40;;;;;;;22.63;45.32;99066.09;7314291;19;129038;-37
2022/05/11 11:46:42;;;;;;;19.98;2.45;;;;;;;22.66;45.08;99079.72;7312454;19;130088;-37
2022/05/11 11:49:16;;;;;;;19.27;2.28;;;;;;;22.68;45.89;99085.63;7316748;19;130621;-37
2022/05/11 11:51:51;;;;;;;44.15;4.35;;;;;;;22.72;45.86;99078.25;7311776;19;154779;-37
2022/05/11 11:54:37;;;;;;;20.50;2.50;;;;;;;22.73;45.75;99069.41;7313818;19;129489;-40
2022/05/11 11:57:03;;;;;;;20.52;2.53;;;;;;;22.72;46.00;99070.41;7315011;19;130111;-37
2022/05/11 11:59:28;;;;;;;16.73;2.17;;;;;;;22.71;45.85;99056.47;7314460;19;129083;-36
2022/05/11 12:02:11;;;;;;;30.33;3.53;;;;;;;22.70;45.57;99064.50;7312020;19;128926;-38
2022/05/11 12:04:53;;;;;;;27.48;3.13;;;;;;;22.73;45.18;99059.75;7314639;19;129300;-37
2022/05/11 12:15:45;;;;;;;34.53;3.42;;;;;;;22.75;45.42;99056.97;7311413;19;129276;-39